Forside
METAR-TAF:

METAR-TAF

Lufthavne :

Bornholms Lufthavn

Rønne, Danmark

Breddekreds: 55-04N, længdekreds: 014-45E, højde: 16 m

Aktuelle vejr

Denne rapport blev lavet for 28 minutter siden, kl. 14:20 UTC
Vind 13 kt fra nordøst med vindstød på up til 24 kt, varierende mellem nord og øst
Temperatur 8°C
Fugtighed 61%
Tryk 1022 hPa
Sigt 10 km eller mere
let regnbyger

METAR: EKRN 171420Z AUTO 04013G24KT 010V080 9999 -SHRA OVC069/// 08/01 Q1022

Tid: 16:48 (14:48 UTC)

Vejrudsigter

Denne rapport blev lavet for 3 timer og 23 minutter siden, kl. 11:25 UTC
Foreløbig gælder fra 17 på 12 UTC til 17 på 18 UTC
Vind 10 kt fra nordøst
Sigt 10 km eller mere
ingen skyer under 1500m og ingen cumulonimbus
Midlertidig
fra 17 på 12 UTC til 17 på 18 UTC
Vind 18 kt fra nordøst med vindstød på up til 28 kt

TAF: EKRN 171125Z 1712/1718 04010KT CAVOK TEMPO 1712/1718 05018G28KT

Vejrobservationer og prognoser fra mere end 4000 lufthavne (METAR og TAF).

De gule og røde prikker repræsenterer de meteorologiske stationer.

Flyt musen over at se navnet på stationen.

Så klik over at se vejr observationer og prognoser.

At skifte det kort: Klik på de grønne knapper med et sort kors for at zoome ind; på den grønne knap med en bindestreg for at zoome ud; eller på de grønne pile for tilstødende kort.


METAR-TAF: